Time;durP1;ratioP1;P1;durP2;ratioP2;P2;SDS_P1;SDS_P2;PMS_P1;PMS_P2;Temp;Humidity;BMP_temperature;BMP_pressure;BME280_temperature;BME280_humidity;BME280_pressure;Samples;Min_cycle;Max_cycle;Signal;HPM_P1;HPM_P2
2022/07/08 00:01:16;;;;;;;6.43;1.77;;;;;;;;;;5064435;27;95292;-76
2022/07/08 00:03:43;;;;;;;5.80;1.70;;;;;;;;;;5061687;27;96824;-74
2022/07/08 00:06:09;;;;;;;8.77;1.75;;;;;;;;;;5070039;27;97338;-77
2022/07/08 00:08:36;;;;;;;8.57;1.90;;;;;;;;;;5059738;27;95193;-77
2022/07/08 00:11:02;;;;;;;6.88;1.90;;;;;;;;;;5066358;27;96097;-77
2022/07/08 00:13:28;;;;;;;12.75;2.42;;;;;;;;;;5061660;27;96478;-77
2022/07/08 00:15:55;;;;;;;8.70;1.80;;;;;;;;;;5072018;27;95755;-73
2022/07/08 00:18:21;;;;;;;9.32;1.75;;;;;;;;;;5068142;27;97430;-77
2022/07/08 00:20:48;;;;;;;7.28;2.00;;;;;;;;;;5058630;27;95330;-77
2022/07/08 00:23:14;;;;;;;11.23;2.25;;;;;;;;;;5062310;27;96791;-77
2022/07/08 00:25:40;;;;;;;13.45;2.28;;;;;;;;;;5072830;27;96332;-77
2022/07/08 00:28:07;;;;;;;9.10;1.60;;;;;;;;;;5053641;27;95144;-76
2022/07/08 00:30:33;;;;;;;7.97;1.90;;;;;;;;;;5066815;27;96834;-76
2022/07/08 00:32:59;;;;;;;11.52;2.30;;;;;;;;;;5066456;27;97405;-77
2022/07/08 00:35:26;;;;;;;10.57;2.10;;;;;;;;;;5076074;27;95326;-77
2022/07/08 00:37:53;;;;;;;12.52;2.13;;;;;;;;;;5070566;27;97171;-77
2022/07/08 00:40:20;;;;;;;7.97;1.90;;;;;;;;;;5072892;27;95091;-75
2022/07/08 00:42:48;;;;;;;8.85;1.98;;;;;;;;;;5059898;27;96992;-74
2022/07/08 00:45:15;;;;;;;9.18;2.30;;;;;;;;;;5050556;27;97212;-74
2022/07/08 00:47:42;;;;;;;12.20;2.15;;;;;;;;;;5052538;27;95385;-74
2022/07/08 00:50:12;;;;;;;11.82;2.05;;;;;;;;;;5052512;27;95587;-74
2022/07/08 00:52:39;;;;;;;7.90;2.03;;;;;;;;;;5050421;27;97421;-74
2022/07/08 00:55:14;;;;;;;8.10;1.88;;;;;;;;;;5068706;27;96236;-74
2022/07/08 00:57:40;;;;;;;9.40;2.30;;;;;;;;;;5074297;27;96866;-74
2022/07/08 01:00:07;;;;;;;5.63;1.88;;;;;;;;;;5072123;27;95514;-74
2022/07/08 01:02:33;;;;;;;10.75;2.38;;;;;;;;;;5060356;27;96721;-74
2022/07/08 01:05:00;;;;;;;8.90;1.90;;;;;;;;;;5073283;27;96543;-74
2022/07/08 01:07:26;;;;;;;9.68;2.03;;;;;;;;;;5075975;27;95189;-75
2022/07/08 01:09:52;;;;;;;7.55;2.15;;;;;;;;;;5076179;27;96713;-75
2022/07/08 01:12:18;;;;;;;17.00;2.58;;;;;;;;;;5069656;27;97437;-76
2022/07/08 01:14:45;;;;;;;9.50;2.40;;;;;;;;;;5061684;27;95529;-74
2022/07/08 01:17:11;;;;;;;10.13;2.72;;;;;;;;;;5054934;27;96860;-75
2022/07/08 01:19:37;;;;;;;8.30;2.03;;;;;;;;;;5057958;27;96299;-75
2022/07/08 01:22:04;;;;;;;8.80;2.00;;;;;;;;;;5068459;27;96886;-77
2022/07/08 01:24:30;;;;;;;6.80;2.00;;;;;;;;;;5055208;27;96028;-75
2022/07/08 01:26:56;;;;;;;8.88;2.25;;;;;;;;;;5070168;27;95151;-75
2022/07/08 01:29:23;;;;;;;5.68;1.92;;;;;;;;;;5059192;27;96769;-76
2022/07/08 01:31:53;;;;;;;7.68;2.70;;;;;;;;;;5064955;27;97414;-76
2022/07/08 01:34:19;;;;;;;10.27;2.45;;;;;;;;;;5056853;27;95209;-73
2022/07/08 01:36:45;;;;;;;7.93;1.98;;;;;;;;;;5054911;27;96963;-76
2022/07/08 01:39:12;;;;;;;9.73;2.08;;;;;;;;;;5070185;27;96250;-74
2022/07/08 01:41:38;;;;;;;12.27;2.58;;;;;;;;;;5066353;27;96448;-76
2022/07/08 01:44:04;;;;;;;9.82;2.25;;;;;;;;;;5053242;27;97334;-76
2022/07/08 01:46:31;;;;;;;13.30;2.28;;;;;;;;;;5066595;27;95397;-75
2022/07/08 01:48:57;;;;;;;8.45;1.88;;;;;;;;;;5061841;27;96112;-75
2022/07/08 01:51:23;;;;;;;7.30;2.00;;;;;;;;;;5053953;27;97501;-75
2022/07/08 01:53:50;;;;;;;10.65;2.00;;;;;;;;;;5071402;27;95976;-74
2022/07/08 01:56:16;;;;;;;8.30;2.40;;;;;;;;;;5073286;27;96290;-75
2022/07/08 01:58:42;;;;;;;9.85;2.33;;;;;;;;;;5067048;27;97532;-75
2022/07/08 02:01:09;;;;;;;10.18;2.25;;;;;;;;;;5067142;27;96191;-75
2022/07/08 02:03:35;;;;;;;8.38;1.92;;;;;;;;;;5077494;27;96289;-75
2022/07/08 02:06:02;;;;;;;8.95;1.98;;;;;;;;;;5071981;27;95391;-74
2022/07/08 02:08:28;;;;;;;10.30;2.15;;;;;;;;;;5074150;27;95581;-75
2022/07/08 02:13:40;;;;;;;9.00;2.33;;;;;;;;;;5068734;27;95356;-75
2022/07/08 02:16:06;;;;;;;9.88;2.20;;;;;;;;;;5069838;27;96631;-74
2022/07/08 02:18:34;;;;;;;11.45;2.08;;;;;;;;;;5053852;27;99246;-74
2022/07/08 02:21:01;;;;;;;11.27;2.30;;;;;;;;;;5053842;27;95349;-74
2022/07/08 02:23:27;;;;;;;11.75;2.40;;;;;;;;;;5053274;27;96849;-75
2022/07/08 02:25:53;;;;;;;8.80;2.50;;;;;;;;;;5057257;27;97304;-74
2022/07/08 02:28:19;;;;;;;14.38;4.50;;;;;;;;;;5072933;27;96858;-74
2022/07/08 02:30:46;;;;;;;13.05;4.85;;;;;;;;;;5074188;27;97236;-74
2022/07/08 02:33:12;;;;;;;8.57;4.20;;;;;;;;;;5059595;27;95254;-74
2022/07/08 02:35:39;;;;;;;10.77;4.35;;;;;;;;;;5053262;27;96805;-75
2022/07/08 02:38:05;;;;;;;12.95;3.70;;;;;;;;;;5073344;27;96040;-76
2022/07/08 02:40:31;;;;;;;10.43;3.80;;;;;;;;;;5074219;27;95407;-75
2022/07/08 02:42:58;;;;;;;13.88;3.22;;;;;;;;;;5072085;27;97463;-75
2022/07/08 02:45:24;;;;;;;11.20;2.75;;;;;;;;;;5076433;27;97358;-75
2022/07/08 02:47:50;;;;;;;11.10;3.60;;;;;;;;;;5058597;27;97060;-76
2022/07/08 02:50:17;;;;;;;10.27;2.90;;;;;;;;;;5053482;27;97465;-76
2022/07/08 02:52:43;;;;;;;9.18;2.60;;;;;;;;;;5052914;27;95311;-75
2022/07/08 02:55:09;;;;;;;9.02;2.38;;;;;;;;;;5053965;27;96795;-75
2022/07/08 02:57:36;;;;;;;10.93;2.60;;;;;;;;;;5062842;27;97318;-76
2022/07/08 03:00:03;;;;;;;13.40;2.72;;;;;;;;;;5056107;27;95298;-75
2022/07/08 03:02:29;;;;;;;8.85;2.53;;;;;;;;;;5054094;27;96948;-75
2022/07/08 03:04:58;;;;;;;8.85;2.70;;;;;;;;;;5073245;27;97075;-74
2022/07/08 03:07:24;;;;;;;10.25;2.60;;;;;;;;;;5073558;27;95350;-75
2022/07/08 03:09:51;;;;;;;9.93;3.13;;;;;;;;;;5073940;27;97350;-76
2022/07/08 03:12:17;;;;;;;9.85;2.60;;;;;;;;;;5062805;27;95759;-75
2022/07/08 03:14:43;;;;;;;10.65;2.67;;;;;;;;;;5052989;27;96504;-76
2022/07/08 03:17:09;;;;;;;8.90;2.33;;;;;;;;;;5061184;27;97466;-77
2022/07/08 03:19:36;;;;;;;12.60;2.60;;;;;;;;;;5073280;27;95202;-76
2022/07/08 03:22:03;;;;;;;7.15;2.20;;;;;;;;;;5063332;27;97215;-77
2022/07/08 03:24:29;;;;;;;11.40;3.22;;;;;;;;;;5052174;27;97470;-76
2022/07/08 03:26:56;;;;;;;11.30;3.75;;;;;;;;;;5053880;27;96621;-76
2022/07/08 03:29:22;;;;;;;14.00;3.53;;;;;;;;;;5056618;27;96788;-76
2022/07/08 03:31:48;;;;;;;12.88;3.50;;;;;;;;;;5054358;27;95313;-74
2022/07/08 03:34:15;;;;;;;12.88;3.25;;;;;;;;;;5071895;27;96731;-76
2022/07/08 03:36:41;;;;;;;10.88;2.60;;;;;;;;;;5056051;27;97415;-77
2022/07/08 03:39:08;;;;;;;6.53;2.30;;;;;;;;;;5072131;27;95195;-77
2022/07/08 03:41:34;;;;;;;9.13;2.40;;;;;;;;;;5073001;27;95809;-77
2022/07/08 03:44:00;;;;;;;10.07;2.47;;;;;;;;;;5062154;27;97306;-76
2022/07/08 03:46:27;;;;;;;14.70;3.10;;;;;;;;;;5053377;27;95673;-76
2022/07/08 03:48:53;;;;;;;8.45;3.10;;;;;;;;;;5065924;27;97266;-77
2022/07/08 03:51:21;;;;;;;10.82;3.20;;;;;;;;;;5063204;27;97374;-76
2022/07/08 03:53:47;;;;;;;15.30;2.97;;;;;;;;;;5056441;27;97077;-76
2022/07/08 03:56:13;;;;;;;16.77;3.28;;;;;;;;;;5069159;27;96226;-76
2022/07/08 03:58:40;;;;;;;18.48;6.10;;;;;;;;;;5070607;27;95379;-77
2022/07/08 04:01:06;;;;;;;16.58;7.50;;;;;;;;;;5064665;27;97138;-77
2022/07/08 04:03:33;;;;;;;15.80;6.22;;;;;;;;;;5061801;27;97040;-76
2022/07/08 04:05:59;;;;;;;14.63;5.40;;;;;;;;;;5065770;27;95926;-77
2022/07/08 04:08:26;;;;;;;15.18;4.82;;;;;;;;;;5066747;27;96470;-77
2022/07/08 04:10:54;;;;;;;17.13;5.28;;;;;;;;;;5058126;27;97258;-77
2022/07/08 04:13:20;;;;;;;12.25;5.15;;;;;;;;;;5071321;27;95950;-77
2022/07/08 04:15:50;;;;;;;18.58;4.97;;;;;;;;;;5051293;27;97192;-77
2022/07/08 04:18:16;;;;;;;24.15;5.65;;;;;;;;;;5066479;27;95180;-76
2022/07/08 04:20:43;;;;;;;12.75;4.78;;;;;;;;;;5060987;27;96776;-77
2022/07/08 04:23:10;;;;;;;8.30;3.70;;;;;;;;;;5064718;27;97280;-77
2022/07/08 04:25:37;;;;;;;8.73;2.55;;;;;;;;;;5066373;27;95406;-77
2022/07/08 04:28:03;;;;;;;7.25;2.72;;;;;;;;;;5065094;27;96869;-76
2022/07/08 04:30:30;;;;;;;11.18;2.72;;;;;;;;;;5065176;27;97501;-75
2022/07/08 04:32:56;;;;;;;12.32;2.40;;;;;;;;;;5067066;27;95289;-76
2022/07/08 04:35:22;;;;;;;9.88;2.55;;;;;;;;;;5060597;27;96873;-75
2022/07/08 04:37:50;;;;;;;8.82;2.58;;;;;;;;;;5064620;27;95445;-75
2022/07/08 04:40:16;;;;;;;7.25;2.05;;;;;;;;;;5061791;27;96271;-76
2022/07/08 04:42:43;;;;;;;8.30;2.22;;;;;;;;;;5067029;27;97387;-75
2022/07/08 04:45:09;;;;;;;7.47;2.28;;;;;;;;;;5063605;27;95346;-74
2022/07/08 04:47:35;;;;;;;12.13;2.60;;;;;;;;;;5067532;27;96872;-75
2022/07/08 04:50:02;;;;;;;7.93;2.08;;;;;;;;;;5069580;27;97437;-74
2022/07/08 04:52:28;;;;;;;12.25;2.95;;;;;;;;;;5059851;27;96419;-74
2022/07/08 04:54:54;;;;;;;13.55;3.50;;;;;;;;;;5071573;27;96762;-75
2022/07/08 04:57:21;;;;;;;9.45;2.90;;;;;;;;;;5063480;27;95157;-75
2022/07/08 04:59:47;;;;;;;11.70;3.03;;;;;;;;;;5071688;27;96867;-75
2022/07/08 05:02:14;;;;;;;12.23;2.85;;;;;;;;;;5060598;27;97424;-74
2022/07/08 05:04:41;;;;;;;18.33;4.00;;;;;;;;;;5054680;27;95481;-75
2022/07/08 20:50:37;;;;;;;6.80;3.95;;;;;;;;;;5074340;27;1289579;-71
2022/07/08 20:53:05;;;;;;;9.10;4.20;;;;;;;;;;5082164;27;97359;-74
2022/07/08 20:55:31;;;;;;;9.45;4.32;;;;;;;;;;5070178;27;95401;-73
2022/07/08 20:57:59;;;;;;;10.43;4.30;;;;;;;;;;5079469;27;95348;-73
2022/07/08 21:00:25;;;;;;;8.63;4.00;;;;;;;;;;5069516;27;97261;-74
2022/07/08 21:02:52;;;;;;;6.13;3.63;;;;;;;;;;5071579;27;95102;-73
2022/07/08 21:05:18;;;;;;;8.55;3.78;;;;;;;;;;5087657;27;96717;-74
2022/07/08 21:07:44;;;;;;;10.15;4.03;;;;;;;;;;5081132;27;97621;-74
2022/07/08 21:10:11;;;;;;;10.63;5.00;;;;;;;;;;5076245;27;96257;-71
2022/07/08 21:12:37;;;;;;;8.38;4.10;;;;;;;;;;5074504;27;97385;-72
2022/07/08 21:15:04;;;;;;;8.48;4.10;;;;;;;;;;5071541;27;96732;-71
2022/07/08 21:17:30;;;;;;;8.30;4.50;;;;;;;;;;5090441;27;96713;-71
2022/07/08 21:19:57;;;;;;;9.23;4.10;;;;;;;;;;5088409;27;97295;-71
2022/07/08 21:22:23;;;;;;;10.75;4.57;;;;;;;;;;5068655;27;95285;-71
2022/07/08 21:24:51;;;;;;;8.70;4.32;;;;;;;;;;5069139;27;96670;-71
2022/07/08 21:27:18;;;;;;;9.52;4.15;;;;;;;;;;5081236;27;97466;-72
2022/07/08 21:29:45;;;;;;;9.02;4.20;;;;;;;;;;5082470;27;95411;-72
2022/07/08 21:32:11;;;;;;;8.77;4.35;;;;;;;;;;5086236;27;95622;-71
2022/07/08 21:34:37;;;;;;;7.50;4.20;;;;;;;;;;5089218;27;95336;-71
2022/07/08 21:37:05;;;;;;;9.80;4.00;;;;;;;;;;5072206;27;96035;-72
2022/07/08 21:39:31;;;;;;;9.13;4.15;;;;;;;;;;5070272;27;97306;-71
2022/07/08 21:41:57;;;;;;;6.80;3.60;;;;;;;;;;5072993;27;95434;-72
2022/07/08 21:44:24;;;;;;;9.65;4.53;;;;;;;;;;5077285;27;96858;-74
2022/07/08 21:46:50;;;;;;;10.50;4.00;;;;;;;;;;5079357;27;97327;-74
2022/07/08 21:49:16;;;;;;;8.18;4.25;;;;;;;;;;5080253;27;95376;-72
2022/07/08 21:51:43;;;;;;;8.80;3.95;;;;;;;;;;5067425;27;96540;-72
2022/07/08 21:54:09;;;;;;;7.25;4.10;;;;;;;;;;5086189;27;97486;-72
2022/07/08 21:56:35;;;;;;;10.40;4.07;;;;;;;;;;5089598;27;96740;-72
2022/07/08 21:59:02;;;;;;;7.78;3.97;;;;;;;;;;5085621;27;97284;-72
2022/07/08 22:01:28;;;;;;;9.00;3.85;;;;;;;;;;5062850;27;96316;-73
2022/07/08 22:03:54;;;;;;;11.00;4.32;;;;;;;;;;5071264;27;97284;-73
2022/07/08 22:06:21;;;;;;;9.60;4.20;;;;;;;;;;5074110;27;97597;-73
2022/07/08 22:08:47;;;;;;;7.07;3.80;;;;;;;;;;5073919;27;95621;-72
2022/07/08 22:11:13;;;;;;;8.85;3.95;;;;;;;;;;5059838;27;96674;-72
2022/07/08 22:13:40;;;;;;;9.75;3.92;;;;;;;;;;5071850;27;97324;-74
2022/07/08 22:16:06;;;;;;;8.25;3.97;;;;;;;;;;5075813;27;95782;-71
2022/07/08 22:18:33;;;;;;;7.93;3.85;;;;;;;;;;5054270;27;97260;-73
2022/07/08 22:21:00;;;;;;;11.30;3.72;;;;;;;;;;5058699;27;95726;-73
2022/07/08 22:23:26;;;;;;;9.43;4.03;;;;;;;;;;5054895;27;96770;-71
2022/07/08 22:25:52;;;;;;;7.80;4.50;;;;;;;;;;5073616;27;97331;-71
2022/07/08 22:28:19;;;;;;;13.90;4.20;;;;;;;;;;5075052;27;95370;-72
2022/07/08 22:30:45;;;;;;;6.43;3.80;;;;;;;;;;5061217;27;97121;-72
2022/07/08 22:33:11;;;;;;;9.27;3.90;;;;;;;;;;5054009;27;97348;-72
2022/07/08 22:35:38;;;;;;;8.20;4.03;;;;;;;;;;5054981;27;95327;-72
2022/07/08 22:38:04;;;;;;;8.38;4.05;;;;;;;;;;5057683;27;96816;-72
2022/07/08 22:40:30;;;;;;;9.00;4.45;;;;;;;;;;5054621;27;95514;-72
2022/07/08 22:42:57;;;;;;;8.38;4.05;;;;;;;;;;5056413;27;95948;-72
2022/07/08 22:45:23;;;;;;;14.48;4.50;;;;;;;;;;5054524;27;97310;-72
2022/07/08 22:47:49;;;;;;;8.98;4.30;;;;;;;;;;5053253;27;95691;-72
2022/07/08 22:50:16;;;;;;;9.93;4.22;;;;;;;;;;5068416;27;96372;-73
2022/07/08 22:52:42;;;;;;;7.18;4.38;;;;;;;;;;5054905;27;96937;-71
2022/07/08 22:55:08;;;;;;;14.23;4.60;;;;;;;;;;5054218;27;95453;-74
2022/07/08 22:57:35;;;;;;;8.35;4.10;;;;;;;;;;5054634;27;96632;-73
2022/07/08 23:00:03;;;;;;;16.77;4.80;;;;;;;;;;5062977;27;96332;-73
2022/07/08 23:02:29;;;;;;;21.90;4.43;;;;;;;;;;5061195;27;96175;-71
2022/07/08 23:04:55;;;;;;;10.15;4.70;;;;;;;;;;5069165;27;96459;-71
2022/07/08 23:07:22;;;;;;;7.55;4.35;;;;;;;;;;5063251;27;95198;-71
2022/07/08 23:09:48;;;;;;;11.60;4.53;;;;;;;;;;5052814;27;95644;-72
2022/07/08 23:12:14;;;;;;;13.32;4.43;;;;;;;;;;5052806;27;97456;-72
2022/07/08 23:14:41;;;;;;;9.13;4.68;;;;;;;;;;5054699;27;95370;-72
2022/07/08 23:17:07;;;;;;;7.05;4.20;;;;;;;;;;5054159;27;97065;-72
2022/07/08 23:19:33;;;;;;;6.93;4.80;;;;;;;;;;5057103;27;97135;-72
2022/07/08 23:21:59;;;;;;;9.02;4.88;;;;;;;;;;5053567;27;96771;-71
2022/07/08 23:24:26;;;;;;;9.30;4.38;;;;;;;;;;5052117;27;96284;-72
2022/07/08 23:26:52;;;;;;;8.90;4.55;;;;;;;;;;5054281;27;95357;-72
2022/07/08 23:29:18;;;;;;;9.95;4.20;;;;;;;;;;5053562;27;96497;-72
2022/07/08 23:31:45;;;;;;;9.00;4.50;;;;;;;;;;5055379;27;96927;-72
2022/07/08 23:34:11;;;;;;;7.80;4.30;;;;;;;;;;5064498;27;95355;-72
2022/07/08 23:36:37;;;;;;;10.63;4.57;;;;;;;;;;5069290;27;96933;-72
2022/07/08 23:39:04;;;;;;;8.50;4.40;;;;;;;;;;5065551;27;97395;-72
2022/07/08 23:41:30;;;;;;;10.52;4.97;;;;;;;;;;5072103;27;97386;-72
2022/07/08 23:43:56;;;;;;;9.23;4.70;;;;;;;;;;5065262;27;96163;-72
2022/07/08 23:46:23;;;;;;;8.10;4.30;;;;;;;;;;5053703;27;95330;-72
2022/07/08 23:48:49;;;;;;;8.70;4.65;;;;;;;;;;5054296;27;96708;-72
2022/07/08 23:51:16;;;;;;;9.18;4.72;;;;;;;;;;5051058;27;97264;-72
2022/07/08 23:53:42;;;;;;;10.57;4.70;;;;;;;;;;5053487;27;95278;-72
2022/07/08 23:56:08;;;;;;;11.40;5.05;;;;;;;;;;5053923;27;96702;-72
2022/07/08 23:58:35;;;;;;;9.80;5.07;;;;;;;;;;5052806;27;97291;-72
